sensor_id;sensor_type;location;lat;lon;timestamp;P1;durP1;ratioP1;P2;durP2;ratioP2
74495;SDS011;62979;55.720;37.606;2023-04-15T00:02:19;1.25;;;0.93;;
74495;SDS011;62979;55.720;37.606;2023-04-15T00:04:46;1.77;;;0.65;;
74495;SDS011;62979;55.720;37.606;2023-04-15T00:07:15;2.75;;;0.55;;
74495;SDS011;62979;55.720;37.606;2023-04-15T00:12:09;0.70;;;0.30;;
74495;SDS011;62979;55.720;37.606;2023-04-15T00:14:36;1.65;;;0.68;;
74495;SDS011;62979;55.720;37.606;2023-04-15T00:17:03;1.05;;;0.63;;
74495;SDS011;62979;55.720;37.606;2023-04-15T00:19:31;3.50;;;0.60;;
74495;SDS011;62979;55.720;37.606;2023-04-15T00:21:58;2.53;;;0.93;;
74495;SDS011;62979;55.720;37.606;2023-04-15T00:24:27;4.82;;;0.82;;
74495;SDS011;62979;55.720;37.606;2023-04-15T00:26:55;1.33;;;0.47;;
74495;SDS011;62979;55.720;37.606;2023-04-15T00:29:22;3.25;;;0.90;;
74495;SDS011;62979;55.720;37.606;2023-04-15T00:31:49;2.10;;;0.40;;
74495;SDS011;62979;55.720;37.606;2023-04-15T00:34:16;0.63;;;0.50;;
74495;SDS011;62979;55.720;37.606;2023-04-15T00:36:43;2.20;;;0.77;;
74495;SDS011;62979;55.720;37.606;2023-04-15T00:39:10;2.28;;;0.73;;
74495;SDS011;62979;55.720;37.606;2023-04-15T00:41:38;2.22;;;0.68;;
74495;SDS011;62979;55.720;37.606;2023-04-15T00:46:34;6.50;;;0.68;;
74495;SDS011;62979;55.720;37.606;2023-04-15T00:49:03;1.27;;;0.90;;
74495;SDS011;62979;55.720;37.606;2023-04-15T00:51:31;5.40;;;0.70;;
74495;SDS011;62979;55.720;37.606;2023-04-15T00:54:01;2.08;;;0.45;;
74495;SDS011;62979;55.720;37.606;2023-04-15T00:56:28;1.33;;;0.52;;
74495;SDS011;62979;55.720;37.606;2023-04-15T00:58:57;1.35;;;0.57;;
74495;SDS011;62979;55.720;37.606;2023-04-15T01:01:25;3.00;;;0.77;;
74495;SDS011;62979;55.720;37.606;2023-04-15T01:03:54;2.75;;;0.73;;
74495;SDS011;62979;55.720;37.606;2023-04-15T01:06:23;3.38;;;0.80;;
74495;SDS011;62979;55.720;37.606;2023-04-15T01:11:18;4.50;;;0.38;;
74495;SDS011;62979;55.720;37.606;2023-04-15T01:13:46;1.58;;;0.77;;
74495;SDS011;62979;55.720;37.606;2023-04-15T01:16:15;1.17;;;0.22;;
74495;SDS011;62979;55.720;37.606;2023-04-15T01:18:42;0.80;;;0.43;;
74495;SDS011;62979;55.720;37.606;2023-04-15T01:21:10;2.97;;;0.57;;
74495;SDS011;62979;55.720;37.606;2023-04-15T01:23:37;3.30;;;0.73;;
74495;SDS011;62979;55.720;37.606;2023-04-15T01:26:06;3.50;;;0.73;;
74495;SDS011;62979;55.720;37.606;2023-04-15T01:28:34;4.45;;;1.02;;
74495;SDS011;62979;55.720;37.606;2023-04-15T01:33:33;3.00;;;1.08;;
74495;SDS011;62979;55.720;37.606;2023-04-15T01:36:00;2.72;;;0.88;;
74495;SDS011;62979;55.720;37.606;2023-04-15T01:38:27;4.53;;;0.93;;
74495;SDS011;62979;55.720;37.606;2023-04-15T01:43:24;1.63;;;0.80;;
74495;SDS011;62979;55.720;37.606;2023-04-15T01:45:52;1.83;;;0.57;;
74495;SDS011;62979;55.720;37.606;2023-04-15T01:48:19;2.60;;;1.27;;
74495;SDS011;62979;55.720;37.606;2023-04-15T01:50:46;2.65;;;0.82;;
74495;SDS011;62979;55.720;37.606;2023-04-15T01:53:13;3.53;;;0.70;;
74495;SDS011;62979;55.720;37.606;2023-04-15T01:55:40;3.03;;;1.10;;
74495;SDS011;62979;55.720;37.606;2023-04-15T01:58:07;5.47;;;0.80;;
74495;SDS011;62979;55.720;37.606;2023-04-15T02:00:35;2.65;;;0.52;;
74495;SDS011;62979;55.720;37.606;2023-04-15T02:05:29;3.10;;;0.68;;
74495;SDS011;62979;55.720;37.606;2023-04-15T02:07:56;2.00;;;0.47;;
74495;SDS011;62979;55.720;37.606;2023-04-15T02:10:23;1.00;;;0.30;;
74495;SDS011;62979;55.720;37.606;2023-04-15T02:12:50;2.17;;;0.63;;
74495;SDS011;62979;55.720;37.606;2023-04-15T02:15:18;2.53;;;0.80;;
74495;SDS011;62979;55.720;37.606;2023-04-15T02:17:47;1.45;;;0.52;;
74495;SDS011;62979;55.720;37.606;2023-04-15T02:20:15;2.85;;;1.27;;
74495;SDS011;62979;55.720;37.606;2023-04-15T02:22:45;1.42;;;0.50;;
74495;SDS011;62979;55.720;37.606;2023-04-15T02:25:12;2.03;;;1.45;;
74495;SDS011;62979;55.720;37.606;2023-04-15T02:27:40;1.48;;;0.75;;
74495;SDS011;62979;55.720;37.606;2023-04-15T02:30:08;2.80;;;0.73;;
74495;SDS011;62979;55.720;37.606;2023-04-15T02:32:35;1.67;;;0.82;;
74495;SDS011;62979;55.720;37.606;2023-04-15T02:35:04;1.30;;;0.98;;
74495;SDS011;62979;55.720;37.606;2023-04-15T02:37:34;1.38;;;0.40;;
74495;SDS011;62979;55.720;37.606;2023-04-15T02:40:07;1.45;;;0.57;;
74495;SDS011;62979;55.720;37.606;2023-04-15T02:42:36;1.63;;;0.65;;
74495;SDS011;62979;55.720;37.606;2023-04-15T02:45:04;4.22;;;1.00;;
74495;SDS011;62979;55.720;37.606;2023-04-15T02:47:33;1.50;;;0.70;;
74495;SDS011;62979;55.720;37.606;2023-04-15T02:50:01;1.98;;;0.40;;
74495;SDS011;62979;55.720;37.606;2023-04-15T02:52:31;4.60;;;0.82;;
74495;SDS011;62979;55.720;37.606;2023-04-15T02:54:58;1.10;;;0.73;;
74495;SDS011;62979;55.720;37.606;2023-04-15T02:57:26;2.25;;;0.38;;
74495;SDS011;62979;55.720;37.606;2023-04-15T02:59:54;1.38;;;1.00;;
74495;SDS011;62979;55.720;37.606;2023-04-15T03:02:21;4.32;;;1.08;;
74495;SDS011;62979;55.720;37.606;2023-04-15T03:04:48;3.33;;;0.82;;
74495;SDS011;62979;55.720;37.606;2023-04-15T03:07:18;6.15;;;1.08;;
74495;SDS011;62979;55.720;37.606;2023-04-15T03:09:45;1.83;;;0.85;;
74495;SDS011;62979;55.720;37.606;2023-04-15T03:12:12;9.75;;;0.60;;
74495;SDS011;62979;55.720;37.606;2023-04-15T03:14:39;2.78;;;0.65;;
74495;SDS011;62979;55.720;37.606;2023-04-15T03:17:06;3.03;;;1.05;;
74495;SDS011;62979;55.720;37.606;2023-04-15T03:19:33;1.23;;;0.32;;
74495;SDS011;62979;55.720;37.606;2023-04-15T03:22:00;7.10;;;0.63;;
74495;SDS011;62979;55.720;37.606;2023-04-15T03:24:28;5.32;;;0.43;;
74495;SDS011;62979;55.720;37.606;2023-04-15T03:26:55;5.50;;;0.57;;
74495;SDS011;62979;55.720;37.606;2023-04-15T03:29:23;2.58;;;0.95;;
74495;SDS011;62979;55.720;37.606;2023-04-15T03:31:50;4.75;;;0.65;;
74495;SDS011;62979;55.720;37.606;2023-04-15T03:34:17;2.65;;;1.08;;
74495;SDS011;62979;55.720;37.606;2023-04-15T03:36:44;1.13;;;0.57;;
74495;SDS011;62979;55.720;37.606;2023-04-15T03:39:12;5.53;;;0.77;;
74495;SDS011;62979;55.720;37.606;2023-04-15T03:41:40;1.52;;;0.77;;
74495;SDS011;62979;55.720;37.606;2023-04-15T03:44:07;1.45;;;1.15;;
74495;SDS011;62979;55.720;37.606;2023-04-15T03:46:34;1.67;;;0.70;;
74495;SDS011;62979;55.720;37.606;2023-04-15T03:49:01;3.42;;;1.50;;
74495;SDS011;62979;55.720;37.606;2023-04-15T03:51:27;1.48;;;0.60;;
74495;SDS011;62979;55.720;37.606;2023-04-15T03:53:55;1.70;;;0.70;;
74495;SDS011;62979;55.720;37.606;2023-04-15T03:56:22;2.67;;;0.82;;
74495;SDS011;62979;55.720;37.606;2023-04-15T03:58:51;4.47;;;1.38;;
74495;SDS011;62979;55.720;37.606;2023-04-15T04:03:45;3.67;;;0.38;;
74495;SDS011;62979;55.720;37.606;2023-04-15T04:06:12;1.75;;;0.70;;
74495;SDS011;62979;55.720;37.606;2023-04-15T04:08:39;2.53;;;1.05;;
74495;SDS011;62979;55.720;37.606;2023-04-15T04:11:06;3.67;;;1.00;;
74495;SDS011;62979;55.720;37.606;2023-04-15T04:13:33;2.05;;;1.23;;
74495;SDS011;62979;55.720;37.606;2023-04-15T04:16:02;5.80;;;1.02;;
74495;SDS011;62979;55.720;37.606;2023-04-15T04:18:29;1.20;;;1.10;;
74495;SDS011;62979;55.720;37.606;2023-04-15T04:20:56;2.53;;;0.98;;
74495;SDS011;62979;55.720;37.606;2023-04-15T04:23:24;2.78;;;1.10;;
74495;SDS011;62979;55.720;37.606;2023-04-15T04:25:51;3.40;;;1.10;;
74495;SDS011;62979;55.720;37.606;2023-04-15T04:28:17;3.03;;;2.22;;
74495;SDS011;62979;55.720;37.606;2023-04-15T04:30:44;1.67;;;0.43;;
74495;SDS011;62979;55.720;37.606;2023-04-15T04:33:13;3.75;;;1.75;;
74495;SDS011;62979;55.720;37.606;2023-04-15T04:35:40;3.45;;;1.23;;
74495;SDS011;62979;55.720;37.606;2023-04-15T04:38:07;2.15;;;1.45;;
74495;SDS011;62979;55.720;37.606;2023-04-15T04:40:34;3.28;;;1.33;;
74495;SDS011;62979;55.720;37.606;2023-04-15T04:43:01;4.05;;;1.02;;
74495;SDS011;62979;55.720;37.606;2023-04-15T04:45:28;2.42;;;1.48;;
74495;SDS011;62979;55.720;37.606;2023-04-15T04:47:55;3.50;;;0.93;;
74495;SDS011;62979;55.720;37.606;2023-04-15T04:50:23;1.85;;;1.15;;
74495;SDS011;62979;55.720;37.606;2023-04-15T04:52:51;5.30;;;1.00;;
74495;SDS011;62979;55.720;37.606;2023-04-15T04:55:18;5.25;;;1.40;;
74495;SDS011;62979;55.720;37.606;2023-04-15T04:57:45;5.82;;;1.52;;
74495;SDS011;62979;55.720;37.606;2023-04-15T05:02:40;1.73;;;0.68;;
74495;SDS011;62979;55.720;37.606;2023-04-15T05:05:08;3.03;;;0.90;;
74495;SDS011;62979;55.720;37.606;2023-04-15T05:07:37;2.08;;;0.98;;
74495;SDS011;62979;55.720;37.606;2023-04-15T05:10:05;0.93;;;0.73;;
74495;SDS011;62979;55.720;37.606;2023-04-15T05:12:34;3.40;;;0.50;;
74495;SDS011;62979;55.720;37.606;2023-04-15T05:15:02;3.85;;;1.08;;
74495;SDS011;62979;55.720;37.606;2023-04-15T05:17:30;3.03;;;0.85;;
74495;SDS011;62979;55.720;37.606;2023-04-15T05:19:59;4.00;;;1.13;;
74495;SDS011;62979;55.720;37.606;2023-04-15T05:22:26;5.57;;;1.02;;
74495;SDS011;62979;55.720;37.606;2023-04-15T05:24:54;5.75;;;1.23;;
74495;SDS011;62979;55.720;37.606;2023-04-15T05:29:48;1.83;;;1.10;;
74495;SDS011;62979;55.720;37.606;2023-04-15T05:32:15;3.70;;;1.10;;
74495;SDS011;62979;55.720;37.606;2023-04-15T05:34:42;1.70;;;1.23;;
74495;SDS011;62979;55.720;37.606;2023-04-15T05:37:09;12.30;;;1.25;;
74495;SDS011;62979;55.720;37.606;2023-04-15T05:39:36;2.28;;;0.98;;
74495;SDS011;62979;55.720;37.606;2023-04-15T05:42:05;2.10;;;0.43;;
74495;SDS011;62979;55.720;37.606;2023-04-15T05:44:32;1.63;;;1.02;;
74495;SDS011;62979;55.720;37.606;2023-04-15T05:46:59;1.05;;;0.70;;
74495;SDS011;62979;55.720;37.606;2023-04-15T05:49:27;4.65;;;1.30;;
74495;SDS011;62979;55.720;37.606;2023-04-15T05:51:54;5.25;;;1.08;;
74495;SDS011;62979;55.720;37.606;2023-04-15T05:54:21;3.53;;;1.23;;
74495;SDS011;62979;55.720;37.606;2023-04-15T05:56:48;8.98;;;1.50;;
74495;SDS011;62979;55.720;37.606;2023-04-15T05:59:17;15.45;;;1.58;;
74495;SDS011;62979;55.720;37.606;2023-04-15T06:01:43;6.55;;;1.42;;
74495;SDS011;62979;55.720;37.606;2023-04-15T06:04:12;6.68;;;0.90;;
74495;SDS011;62979;55.720;37.606;2023-04-15T06:06:39;2.13;;;0.73;;
74495;SDS011;62979;55.720;37.606;2023-04-15T06:09:06;4.18;;;1.15;;
74495;SDS011;62979;55.720;37.606;2023-04-15T06:11:33;1.92;;;1.48;;
74495;SDS011;62979;55.720;37.606;2023-04-15T06:14:00;3.65;;;1.58;;
74495;SDS011;62979;55.720;37.606;2023-04-15T06:16:28;2.13;;;1.95;;
74495;SDS011;62979;55.720;37.606;2023-04-15T06:18:55;3.72;;;0.70;;
74495;SDS011;62979;55.720;37.606;2023-04-15T06:21:22;3.10;;;1.10;;
74495;SDS011;62979;55.720;37.606;2023-04-15T06:23:49;3.95;;;1.00;;
74495;SDS011;62979;55.720;37.606;2023-04-15T06:26:16;1.63;;;0.35;;
74495;SDS011;62979;55.720;37.606;2023-04-15T06:28:43;1.10;;;0.57;;
74495;SDS011;62979;55.720;37.606;2023-04-15T06:31:10;6.22;;;1.13;;
74495;SDS011;62979;55.720;37.606;2023-04-15T06:33:38;3.38;;;1.38;;
74495;SDS011;62979;55.720;37.606;2023-04-15T06:36:05;3.25;;;0.93;;
74495;SDS011;62979;55.720;37.606;2023-04-15T06:38:33;10.65;;;1.90;;
74495;SDS011;62979;55.720;37.606;2023-04-15T06:41:01;5.95;;;1.60;;
74495;SDS011;62979;55.720;37.606;2023-04-15T06:43:29;2.92;;;1.27;;
74495;SDS011;62979;55.720;37.606;2023-04-15T06:45:57;7.22;;;1.55;;
74495;SDS011;62979;55.720;37.606;2023-04-15T06:48:24;3.97;;;1.63;;
74495;SDS011;62979;55.720;37.606;2023-04-15T06:50:52;13.43;;;1.67;;
74495;SDS011;62979;55.720;37.606;2023-04-15T06:53:20;5.10;;;1.05;;
74495;SDS011;62979;55.720;37.606;2023-04-15T06:55:47;2.55;;;1.35;;
74495;SDS011;62979;55.720;37.606;2023-04-15T06:58:14;5.35;;;1.67;;
74495;SDS011;62979;55.720;37.606;2023-04-15T07:00:41;5.57;;;2.10;;
74495;SDS011;62979;55.720;37.606;2023-04-15T07:03:08;7.30;;;1.25;;
74495;SDS011;62979;55.720;37.606;2023-04-15T07:05:37;9.57;;;1.48;;
74495;SDS011;62979;55.720;37.606;2023-04-15T07:08:05;5.15;;;1.67;;
74495;SDS011;62979;55.720;37.606;2023-04-15T07:10:33;6.53;;;2.75;;
74495;SDS011;62979;55.720;37.606;2023-04-15T07:13:00;3.25;;;1.25;;
74495;SDS011;62979;55.720;37.606;2023-04-15T07:15:27;5.60;;;0.88;;
74495;SDS011;62979;55.720;37.606;2023-04-15T07:17:54;9.23;;;1.35;;
74495;SDS011;62979;55.720;37.606;2023-04-15T07:20:21;7.88;;;1.13;;
74495;SDS011;62979;55.720;37.606;2023-04-15T07:22:48;2.60;;;1.27;;
74495;SDS011;62979;55.720;37.606;2023-04-15T07:25:16;6.22;;;0.98;;
74495;SDS011;62979;55.720;37.606;2023-04-15T07:27:43;4.65;;;1.30;;
74495;SDS011;62979;55.720;37.606;2023-04-15T07:30:10;3.10;;;1.23;;
74495;SDS011;62979;55.720;37.606;2023-04-15T07:32:38;6.93;;;1.45;;
74495;SDS011;62979;55.720;37.606;2023-04-15T07:35:05;10.75;;;2.33;;
74495;SDS011;62979;55.720;37.606;2023-04-15T07:37:33;6.90;;;1.15;;
74495;SDS011;62979;55.720;37.606;2023-04-15T07:40:01;3.10;;;0.98;;
74495;SDS011;62979;55.720;37.606;2023-04-15T07:42:30;3.63;;;1.05;;
74495;SDS011;62979;55.720;37.606;2023-04-15T07:44:57;2.17;;;0.90;;
74495;SDS011;62979;55.720;37.606;2023-04-15T07:47:24;7.72;;;1.13;;
74495;SDS011;62979;55.720;37.606;2023-04-15T07:49:51;4.20;;;1.40;;
74495;SDS011;62979;55.720;37.606;2023-04-15T07:52:18;4.43;;;1.35;;
74495;SDS011;62979;55.720;37.606;2023-04-15T07:54:45;3.17;;;1.45;;
74495;SDS011;62979;55.720;37.606;2023-04-15T07:57:13;5.30;;;2.67;;
74495;SDS011;62979;55.720;37.606;2023-04-15T07:59:42;4.47;;;2.97;;
74495;SDS011;62979;55.720;37.606;2023-04-15T08:02:09;3.97;;;1.45;;
74495;SDS011;62979;55.720;37.606;2023-04-15T08:04:37;4.28;;;1.08;;
74495;SDS011;62979;55.720;37.606;2023-04-15T08:07:04;12.32;;;1.85;;
74495;SDS011;62979;55.720;37.606;2023-04-15T08:09:31;8.57;;;4.20;;
74495;SDS011;62979;55.720;37.606;2023-04-15T08:11:58;7.68;;;1.55;;
74495;SDS011;62979;55.720;37.606;2023-04-15T08:14:25;7.80;;;1.42;;
74495;SDS011;62979;55.720;37.606;2023-04-15T08:16:54;6.35;;;2.15;;
74495;SDS011;62979;55.720;37.606;2023-04-15T08:19:21;6.13;;;1.45;;
74495;SDS011;62979;55.720;37.606;2023-04-15T08:21:48;9.82;;;2.90;;
74495;SDS011;62979;55.720;37.606;2023-04-15T08:24:15;5.85;;;1.73;;
74495;SDS011;62979;55.720;37.606;2023-04-15T08:26:42;5.47;;;1.63;;
74495;SDS011;62979;55.720;37.606;2023-04-15T08:29:09;4.75;;;1.25;;
74495;SDS011;62979;55.720;37.606;2023-04-15T08:31:35;5.28;;;1.27;;
74495;SDS011;62979;55.720;37.606;2023-04-15T08:34:04;6.50;;;1.65;;
74495;SDS011;62979;55.720;37.606;2023-04-15T08:36:31;7.53;;;1.85;;
74495;SDS011;62979;55.720;37.606;2023-04-15T08:38:58;8.65;;;2.20;;
74495;SDS011;62979;55.720;37.606;2023-04-15T08:44:00;6.57;;;1.33;;
74495;SDS011;62979;55.720;37.606;2023-04-15T08:46:31;6.90;;;1.20;;
74495;SDS011;62979;55.720;37.606;2023-04-15T08:48:58;5.20;;;1.13;;
74495;SDS011;62979;55.720;37.606;2023-04-15T08:51:31;4.38;;;2.08;;
74495;SDS011;62979;55.720;37.606;2023-04-15T08:53:58;4.90;;;1.63;;
74495;SDS011;62979;55.720;37.606;2023-04-15T08:56:27;3.58;;;0.98;;
74495;SDS011;62979;55.720;37.606;2023-04-15T08:58:58;5.20;;;1.38;;
74495;SDS011;62979;55.720;37.606;2023-04-15T09:01:25;2.78;;;0.73;;
74495;SDS011;62979;55.720;37.606;2023-04-15T09:03:52;5.45;;;1.42;;
74495;SDS011;62979;55.720;37.606;2023-04-15T09:06:22;6.45;;;1.80;;
74495;SDS011;62979;55.720;37.606;2023-04-15T09:08:49;2.65;;;2.15;;
74495;SDS011;62979;55.720;37.606;2023-04-15T09:11:17;9.82;;;2.75;;
74495;SDS011;62979;55.720;37.606;2023-04-15T09:13:44;3.40;;;1.83;;
74495;SDS011;62979;55.720;37.606;2023-04-15T09:16:11;5.32;;;1.20;;
74495;SDS011;62979;55.720;37.606;2023-04-15T09:18:39;8.75;;;1.20;;
74495;SDS011;62979;55.720;37.606;2023-04-15T09:21:07;3.72;;;0.93;;
74495;SDS011;62979;55.720;37.606;2023-04-15T09:23:38;6.53;;;1.30;;
74495;SDS011;62979;55.720;37.606;2023-04-15T09:26:07;4.60;;;1.05;;
74495;SDS011;62979;55.720;37.606;2023-04-15T09:28:39;3.40;;;1.38;;
74495;SDS011;62979;55.720;37.606;2023-04-15T09:31:07;4.40;;;1.83;;
74495;SDS011;62979;55.720;37.606;2023-04-15T09:33:36;2.75;;;2.45;;
74495;SDS011;62979;55.720;37.606;2023-04-15T09:36:21;3.30;;;2.70;;
74495;SDS011;62979;55.720;37.606;2023-04-15T09:38:54;22.17;;;3.92;;
74495;SDS011;62979;55.720;37.606;2023-04-15T09:41:22;26.65;;;5.28;;
74495;SDS011;62979;55.720;37.606;2023-04-15T09:43:50;6.93;;;3.15;;
74495;SDS011;62979;55.720;37.606;2023-04-15T09:46:17;5.10;;;3.35;;
74495;SDS011;62979;55.720;37.606;2023-04-15T09:48:45;4.38;;;1.60;;
74495;SDS011;62979;55.720;37.606;2023-04-15T09:51:33;4.53;;;2.15;;
74495;SDS011;62979;55.720;37.606;2023-04-15T09:54:02;3.72;;;1.20;;
74495;SDS011;62979;55.720;37.606;2023-04-15T09:56:31;3.63;;;1.60;;
74495;SDS011;62979;55.720;37.606;2023-04-15T09:59:00;4.38;;;2.08;;
74495;SDS011;62979;55.720;37.606;2023-04-15T10:01:27;6.18;;;3.10;;
74495;SDS011;62979;55.720;37.606;2023-04-15T10:03:55;4.18;;;1.48;;
74495;SDS011;62979;55.720;37.606;2023-04-15T10:06:23;8.52;;;3.63;;
74495;SDS011;62979;55.720;37.606;2023-04-15T10:08:52;4.20;;;3.17;;
74495;SDS011;62979;55.720;37.606;2023-04-15T10:11:21;4.65;;;3.58;;
74495;SDS011;62979;55.720;37.606;2023-04-15T10:13:50;4.32;;;3.72;;
74495;SDS011;62979;55.720;37.606;2023-04-15T10:16:19;5.13;;;2.78;;
74495;SDS011;62979;55.720;37.606;2023-04-15T10:18:50;3.95;;;3.58;;
74495;SDS011;62979;55.720;37.606;2023-04-15T10:21:21;6.60;;;3.60;;
74495;SDS011;62979;55.720;37.606;2023-04-15T10:23:48;3.28;;;1.15;;
74495;SDS011;62979;55.720;37.606;2023-04-15T10:26:15;5.45;;;3.13;;
74495;SDS011;62979;55.720;37.606;2023-04-15T10:28:44;6.32;;;2.20;;
74495;SDS011;62979;55.720;37.606;2023-04-15T10:31:13;6.28;;;3.72;;
74495;SDS011;62979;55.720;37.606;2023-04-15T10:33:40;8.18;;;2.05;;
74495;SDS011;62979;55.720;37.606;2023-04-15T10:36:09;7.38;;;4.22;;
74495;SDS011;62979;55.720;37.606;2023-04-15T10:38:38;5.80;;;2.20;;
74495;SDS011;62979;55.720;37.606;2023-04-15T10:41:14;3.22;;;2.80;;
74495;SDS011;62979;55.720;37.606;2023-04-15T10:43:48;4.65;;;2.03;;
74495;SDS011;62979;55.720;37.606;2023-04-15T10:46:18;14.32;;;4.03;;
74495;SDS011;62979;55.720;37.606;2023-04-15T10:48:48;3.45;;;1.95;;
74495;SDS011;62979;55.720;37.606;2023-04-15T10:51:25;5.05;;;2.05;;
74495;SDS011;62979;55.720;37.606;2023-04-15T10:53:55;5.75;;;2.22;;
74495;SDS011;62979;55.720;37.606;2023-04-15T10:56:23;7.65;;;3.28;;
74495;SDS011;62979;55.720;37.606;2023-04-15T10:58:52;5.93;;;1.80;;
74495;SDS011;62979;55.720;37.606;2023-04-15T11:01:19;34.78;;;5.63;;
74495;SDS011;62979;55.720;37.606;2023-04-15T11:03:48;27.10;;;2.97;;
74495;SDS011;62979;55.720;37.606;2023-04-15T11:08:52;4.75;;;1.80;;
74495;SDS011;62979;55.720;37.606;2023-04-15T11:11:22;5.28;;;3.58;;
74495;SDS011;62979;55.720;37.606;2023-04-15T11:14:25;8.50;;;3.40;;
74495;SDS011;62979;55.720;37.606;2023-04-15T11:16:52;11.73;;;4.00;;
74495;SDS011;62979;55.720;37.606;2023-04-15T11:19:19;7.22;;;1.95;;
74495;SDS011;62979;55.720;37.606;2023-04-15T11:21:46;4.90;;;1.80;;
74495;SDS011;62979;55.720;37.606;2023-04-15T11:24:22;4.68;;;2.25;;
74495;SDS011;62979;55.720;37.606;2023-04-15T11:26:55;4.53;;;3.85;;
74495;SDS011;62979;55.720;37.606;2023-04-15T11:29:28;4.75;;;1.55;;
74495;SDS011;62979;55.720;37.606;2023-04-15T11:32:07;5.95;;;1.80;;
74495;SDS011;62979;55.720;37.606;2023-04-15T11:34:35;5.45;;;2.40;;
74495;SDS011;62979;55.720;37.606;2023-04-15T11:37:03;3.17;;;2.97;;
74495;SDS011;62979;55.720;37.606;2023-04-15T11:39:32;5.32;;;2.08;;
74495;SDS011;62979;55.720;37.606;2023-04-15T11:41:59;5.07;;;3.20;;
74495;SDS011;62979;55.720;37.606;2023-04-15T11:44:26;8.40;;;3.30;;
74495;SDS011;62979;55.720;37.606;2023-04-15T11:46:55;3.05;;;1.27;;
74495;SDS011;62979;55.720;37.606;2023-04-15T11:49:25;8.45;;;3.63;;
74495;SDS011;62979;55.720;37.606;2023-04-15T11:51:54;6.38;;;3.80;;
74495;SDS011;62979;55.720;37.606;2023-04-15T11:54:21;3.25;;;1.85;;
74495;SDS011;62979;55.720;37.606;2023-04-15T11:56:49;4.05;;;2.47;;
74495;SDS011;62979;55.720;37.606;2023-04-15T11:59:16;7.85;;;1.77;;
74495;SDS011;62979;55.720;37.606;2023-04-15T12:01:43;6.25;;;2.15;;
74495;SDS011;62979;55.720;37.606;2023-04-15T12:04:13;7.68;;;2.05;;
74495;SDS011;62979;55.720;37.606;2023-04-15T12:06:45;4.63;;;3.42;;
74495;SDS011;62979;55.720;37.606;2023-04-15T12:11:42;8.65;;;2.40;;
74495;SDS011;62979;55.720;37.606;2023-04-15T12:14:18;7.40;;;1.98;;
74495;SDS011;62979;55.720;37.606;2023-04-15T12:16:49;5.40;;;3.05;;
74495;SDS011;62979;55.720;37.606;2023-04-15T12:19:26;4.40;;;1.88;;
74495;SDS011;62979;55.720;37.606;2023-04-15T12:21:57;4.47;;;1.63;;
74495;SDS011;62979;55.720;37.606;2023-04-15T12:24:28;2.97;;;2.65;;
74495;SDS011;62979;55.720;37.606;2023-04-15T12:27:00;7.43;;;2.60;;
74495;SDS011;62979;55.720;37.606;2023-04-15T12:29:29;5.55;;;3.47;;
74495;SDS011;62979;55.720;37.606;2023-04-15T12:32:03;4.50;;;1.73;;
74495;SDS011;62979;55.720;37.606;2023-04-15T12:34:34;2.53;;;1.40;;
74495;SDS011;62979;55.720;37.606;2023-04-15T12:37:03;5.15;;;4.03;;
74495;SDS011;62979;55.720;37.606;2023-04-15T12:39:34;3.78;;;1.95;;
74495;SDS011;62979;55.720;37.606;2023-04-15T12:42:03;2.30;;;1.83;;
74495;SDS011;62979;55.720;37.606;2023-04-15T12:44:30;4.88;;;2.67;;
74495;SDS011;62979;55.720;37.606;2023-04-15T12:46:58;5.53;;;3.53;;
74495;SDS011;62979;55.720;37.606;2023-04-15T12:49:25;12.48;;;2.55;;
74495;SDS011;62979;55.720;37.606;2023-04-15T12:54:23;10.55;;;3.70;;
74495;SDS011;62979;55.720;37.606;2023-04-15T12:56:50;4.78;;;1.90;;
74495;SDS011;62979;55.720;37.606;2023-04-15T12:59:18;5.18;;;3.42;;
74495;SDS011;62979;55.720;37.606;2023-04-15T13:01:46;3.42;;;1.65;;
74495;SDS011;62979;55.720;37.606;2023-04-15T13:04:14;3.05;;;1.98;;
74495;SDS011;62979;55.720;37.606;2023-04-15T13:06:41;6.00;;;2.67;;
74495;SDS011;62979;55.720;37.606;2023-04-15T13:09:10;6.78;;;2.20;;
74495;SDS011;62979;55.720;37.606;2023-04-15T13:11:37;4.82;;;3.22;;
74495;SDS011;62979;55.720;37.606;2023-04-15T13:14:05;4.20;;;1.30;;
74495;SDS011;62979;55.720;37.606;2023-04-15T13:16:35;8.55;;;2.80;;
74495;SDS011;62979;55.720;37.606;2023-04-15T13:19:02;4.30;;;2.38;;
74495;SDS011;62979;55.720;37.606;2023-04-15T13:21:30;4.75;;;3.97;;
74495;SDS011;62979;55.720;37.606;2023-04-15T13:23:59;4.63;;;1.58;;
74495;SDS011;62979;55.720;37.606;2023-04-15T13:26:28;6.00;;;3.67;;
74495;SDS011;62979;55.720;37.606;2023-04-15T13:28:55;4.00;;;3.05;;
74495;SDS011;62979;55.720;37.606;2023-04-15T13:31:22;8.25;;;3.15;;
74495;SDS011;62979;55.720;37.606;2023-04-15T13:33:49;7.70;;;1.98;;
74495;SDS011;62979;55.720;37.606;2023-04-15T13:36:16;9.27;;;3.60;;
74495;SDS011;62979;55.720;37.606;2023-04-15T13:38:42;7.93;;;3.22;;
74495;SDS011;62979;55.720;37.606;2023-04-15T13:41:09;5.15;;;2.95;;
74495;SDS011;62979;55.720;37.606;2023-04-15T13:43:39;6.43;;;3.72;;
74495;SDS011;62979;55.720;37.606;2023-04-15T13:46:06;5.60;;;3.13;;
74495;SDS011;62979;55.720;37.606;2023-04-15T13:48:33;7.82;;;3.35;;
74495;SDS011;62979;55.720;37.606;2023-04-15T13:51:00;5.60;;;4.07;;
74495;SDS011;62979;55.720;37.606;2023-04-15T13:53:27;3.60;;;2.03;;
74495;SDS011;62979;55.720;37.606;2023-04-15T13:55:54;6.57;;;3.63;;
74495;SDS011;62979;55.720;37.606;2023-04-15T13:58:21;8.68;;;3.58;;
74495;SDS011;62979;55.720;37.606;2023-04-15T14:00:50;9.10;;;3.22;;
74495;SDS011;62979;55.720;37.606;2023-04-15T14:03:17;5.93;;;4.63;;
74495;SDS011;62979;55.720;37.606;2023-04-15T14:05:43;6.03;;;3.33;;
74495;SDS011;62979;55.720;37.606;2023-04-15T14:08:11;3.55;;;2.05;;
74495;SDS011;62979;55.720;37.606;2023-04-15T14:10:38;5.40;;;2.42;;
74495;SDS011;62979;55.720;37.606;2023-04-15T14:13:05;6.85;;;2.67;;
74495;SDS011;62979;55.720;37.606;2023-04-15T14:15:32;9.85;;;4.45;;
74495;SDS011;62979;55.720;37.606;2023-04-15T14:18:00;6.18;;;5.13;;
74495;SDS011;62979;55.720;37.606;2023-04-15T14:20:27;6.70;;;4.70;;
74495;SDS011;62979;55.720;37.606;2023-04-15T14:22:54;5.97;;;3.75;;
74495;SDS011;62979;55.720;37.606;2023-04-15T14:25:21;4.63;;;3.38;;
74495;SDS011;62979;55.720;37.606;2023-04-15T14:27:48;7.10;;;2.97;;
74495;SDS011;62979;55.720;37.606;2023-04-15T14:30:16;3.05;;;2.72;;
74495;SDS011;62979;55.720;37.606;2023-04-15T14:32:43;12.00;;;5.28;;
74495;SDS011;62979;55.720;37.606;2023-04-15T14:35:11;6.50;;;2.75;;
74495;SDS011;62979;55.720;37.606;2023-04-15T14:37:38;8.60;;;4.55;;
74495;SDS011;62979;55.720;37.606;2023-04-15T14:40:05;5.85;;;4.10;;
74495;SDS011;62979;55.720;37.606;2023-04-15T14:42:34;4.95;;;3.65;;
74495;SDS011;62979;55.720;37.606;2023-04-15T14:45:02;6.22;;;3.17;;
74495;SDS011;62979;55.720;37.606;2023-04-15T14:47:29;6.88;;;3.00;;
74495;SDS011;62979;55.720;37.606;2023-04-15T14:49:57;9.60;;;3.10;;
74495;SDS011;62979;55.720;37.606;2023-04-15T14:52:25;4.72;;;4.35;;
74495;SDS011;62979;55.720;37.606;2023-04-15T14:54:52;6.47;;;4.22;;
74495;SDS011;62979;55.720;37.606;2023-04-15T14:57:19;10.20;;;4.43;;
74495;SDS011;62979;55.720;37.606;2023-04-15T14:59:46;7.63;;;3.10;;
74495;SDS011;62979;55.720;37.606;2023-04-15T15:02:13;4.97;;;2.70;;
74495;SDS011;62979;55.720;37.606;2023-04-15T15:04:40;4.30;;;2.60;;
74495;SDS011;62979;55.720;37.606;2023-04-15T15:07:06;5.75;;;4.57;;
74495;SDS011;62979;55.720;37.606;2023-04-15T15:09:35;4.28;;;3.97;;
74495;SDS011;62979;55.720;37.606;2023-04-15T15:12:02;6.10;;;2.65;;